Portada
METAR-TAF:

METAR-TAF

Aeropuertos :

Helipuerto de Algeciras

Algeciras, España

latitud: 36-07-44N, longitud: 05-26-28W, altitud: 30 m

Observación

El informe se hizo hace 29 minutos, a las 08:00 UTC
Viento 16 kt del sur-suroeste, variando entre sur y oeste-suroeste
Temperatura 16°C
Humedad 100%
Presión 1006 hPa
Visibilidad: 5000 m
Cielo nuboso a una altura de 1300 ft
Cielo cubierto a una altura de 4200 ft
lluvia

METAR: LEAG 220800Z AUTO 21016KT 180V250 5000 RA BKN013 OVC042 16/16 Q1006

Hora: 09:29 (08:29 UTC)


TAF: falta

Observaciones y pronósticos meteorológicos de más de 4000 aeropuertos (mensajes METAR y TAF).

Los puntos amarillos y rojos representan las estaciones disponibles.

Ponga el ratón en el punto deseado para ver el nombre de la estación.

Haga clic para ver las observaciones y los pronósticos meteorológicos.

Para cambiar el mapa : haga clic en los botones verdes con una cruz de color negro para hacer un zoom, en el botón verde con un guión para alejar o en las flechas verdes para mapas adyacentes.


METAR-TAF: